createdAt,value
2022-08-10T00:04:07.066Z,5.85
2022-08-10T00:09:08.697Z,7.07
2022-08-10T00:14:10.367Z,7.30
2022-08-10T00:19:12.014Z,7.20
2022-08-10T00:24:14.615Z,7.20
2022-08-10T00:29:16.241Z,7.40
2022-08-10T00:34:17.861Z,6.95
2022-08-10T00:39:19.539Z,6.47
2022-08-10T00:44:21.318Z,6.65
2022-08-10T00:49:23.024Z,6.68
2022-08-10T00:54:25.247Z,7.40
2022-08-10T00:59:26.921Z,7.43
2022-08-10T01:04:39.932Z,7.57
2022-08-10T01:09:56.896Z,7.57
2022-08-10T01:15:29.337Z,6.82
2022-08-10T01:20:37.908Z,7.13
2022-08-10T01:26:10.518Z,7.60
2022-08-10T01:31:20.039Z,7.13
2022-08-10T01:36:32.454Z,7.80
2022-08-10T01:41:46.918Z,7.93
2022-08-10T01:46:53.174Z,7.00
2022-08-10T01:52:00.933Z,8.13
2022-08-10T01:57:04.212Z,7.70
2022-08-10T02:02:10.077Z,7.95
2022-08-10T02:07:16.513Z,8.52
2022-08-10T02:12:24.488Z,8.52
2022-08-10T02:17:59.876Z,8.00
2022-08-10T02:23:02.840Z,7.63
2022-08-10T02:28:06.693Z,8.52
2022-08-10T02:33:09.925Z,8.73
2022-08-10T02:38:15.547Z,8.70
2022-08-10T02:45:18.527Z,8.95
2022-08-10T02:48:51.855Z,9.25
2022-08-10T02:54:02.650Z,9.23
2022-08-10T02:59:10.174Z,9.15
2022-08-10T03:04:57.112Z,9.70
2022-08-10T03:09:57.755Z,9.00
2022-08-10T03:15:00.785Z,9.27
2022-08-10T03:20:04.688Z,8.68
2022-08-10T03:25:26.278Z,9.35
2022-08-10T03:30:33.275Z,8.95
2022-08-10T03:35:35.838Z,10.05
2022-08-10T03:40:46.022Z,8.90
2022-08-10T03:45:58.629Z,8.65
2022-08-10T03:51:01.991Z,9.43
2022-08-10T03:56:29.362Z,9.20
2022-08-10T04:02:44.008Z,9.20
2022-08-10T04:06:51.397Z,8.68
2022-08-10T04:11:56.328Z,9.40
2022-08-10T04:16:57.966Z,9.38
2022-08-10T04:22:15.936Z,9.90
2022-08-10T04:27:17.789Z,8.57
2022-08-10T04:32:22.146Z,9.15
2022-08-10T04:37:24.659Z,8.45
2022-08-10T04:42:26.488Z,8.35
2022-08-10T04:47:57.417Z,7.93
2022-08-10T04:52:49.806Z,8.85
2022-08-10T04:57:51.460Z,8.68
2022-08-10T05:02:53.116Z,9.02
2022-08-10T05:07:56.907Z,9.40
2022-08-10T05:12:58.811Z,8.77
2022-08-10T05:18:08.698Z,8.75
2022-08-10T05:23:11.591Z,8.77
2022-08-10T05:28:13.189Z,8.65
2022-08-10T05:33:14.795Z,8.02
2022-08-10T05:38:17.883Z,8.18
2022-08-10T05:43:21.634Z,8.77
2022-08-10T05:48:41.702Z,8.40
2022-08-10T05:54:01.155Z,8.02
2022-08-10T05:59:05.128Z,7.20
2022-08-10T06:04:09.270Z,6.97
2022-08-10T06:09:12.014Z,7.00
2022-08-10T06:14:34.764Z,7.40
2022-08-10T06:19:39.617Z,6.68
2022-08-10T06:25:10.040Z,6.93
2022-08-10T06:30:20.595Z,6.05
2022-08-10T06:35:28.620Z,6.05
2022-08-10T06:40:35.948Z,6.68
2022-08-10T06:45:45.974Z,6.32
2022-08-10T06:51:15.395Z,6.03
2022-08-10T06:56:20.918Z,4.70
2022-08-10T07:01:43.575Z,5.55
2022-08-10T07:06:55.139Z,5.10
2022-08-10T07:11:58.351Z,4.97
2022-08-10T07:17:17.171Z,4.05
2022-08-10T07:23:27.399Z,4.28
2022-08-10T07:27:58.494Z,4.72
2022-08-10T07:33:05.300Z,4.28
2022-08-10T07:38:09.462Z,4.25
2022-08-10T07:43:14.147Z,4.72
2022-08-10T07:48:24.989Z,4.00
2022-08-10T07:53:32.364Z,4.50
2022-08-10T07:58:46.424Z,4.00
2022-08-10T08:04:05.648Z,4.57
2022-08-10T08:09:12.667Z,4.22
2022-08-10T08:14:15.567Z,4.00
2022-08-10T08:19:37.512Z,4.47
2022-08-10T08:24:42.324Z,4.57
2022-08-10T08:29:46.400Z,4.55
2022-08-10T08:34:51.467Z,4.03
2022-08-10T08:39:53.911Z,3.60
2022-08-10T08:45:13.514Z,4.00
2022-08-10T08:50:34.075Z,3.10
2022-08-10T08:56:03.301Z,3.38
2022-08-10T09:01:43.794Z,2.80
2022-08-10T09:06:45.413Z,3.38
2022-08-10T09:12:06.017Z,3.28
2022-08-10T09:17:32.316Z,3.25
2022-08-10T09:22:59.906Z,3.40
2022-08-10T09:28:07.952Z,3.72
2022-08-10T09:36:26.377Z,3.92
2022-08-10T09:40:08.481Z,3.80
2022-08-10T09:44:58.440Z,3.25
2022-08-10T09:50:09.112Z,3.80
2022-08-10T09:56:17.076Z,3.60
2022-08-10T10:02:00.380Z,3.70
2022-08-10T10:07:07.027Z,3.10
2022-08-10T10:12:35.736Z,3.70
2022-08-10T10:17:37.420Z,3.55
2022-08-10T10:23:20.618Z,3.55
2022-08-10T10:28:57.461Z,3.72
2022-08-10T10:34:14.621Z,3.65
2022-08-10T10:39:23.799Z,3.80
2022-08-10T10:45:04.501Z,3.75
2022-08-10T10:50:13.191Z,3.60
2022-08-10T10:55:30.293Z,3.22
2022-08-10T11:00:42.105Z,3.55
2022-08-10T11:06:09.928Z,3.80
2022-08-10T11:12:00.045Z,3.90
2022-08-10T11:16:39.148Z,3.65
2022-08-10T11:21:45.372Z,3.85
2022-08-10T11:26:57.390Z,3.47
2022-08-10T11:32:20.302Z,3.50
2022-08-10T11:38:29.714Z,3.70
2022-08-10T11:43:06.483Z,3.97
2022-08-10T11:48:54.868Z,3.40
2022-08-10T11:54:07.379Z,3.40
2022-08-10T11:59:28.242Z,3.33
2022-08-10T12:04:31.407Z,3.60
2022-08-10T12:10:10.644Z,3.33
2022-08-10T12:15:11.165Z,3.35
2022-08-10T12:20:29.065Z,3.00
2022-08-10T12:25:58.705Z,3.97
2022-08-10T12:31:02.709Z,3.53
2022-08-10T12:36:18.301Z,3.47
2022-08-10T12:41:44.541Z,3.25
2022-08-10T12:46:58.961Z,3.20
2022-08-10T12:52:34.944Z,3.15
2022-08-10T12:57:41.012Z,2.72
2022-08-10T13:02:48.555Z,2.60
2022-08-10T13:08:27.195Z,2.72
2022-08-10T13:13:37.243Z,2.75
2022-08-10T13:18:42.484Z,2.92
2022-08-10T13:24:04.285Z,3.05
2022-08-10T13:29:15.124Z,2.47
2022-08-10T13:34:43.028Z,2.47
2022-08-10T13:39:59.482Z,2.38
2022-08-10T13:45:14.583Z,2.72
2022-08-10T13:50:33.691Z,3.05
2022-08-10T13:55:54.122Z,2.50
2022-08-10T14:01:00.494Z,2.53
2022-08-10T14:06:05.366Z,2.63
2022-08-10T14:11:13.004Z,2.47
2022-08-10T14:16:17.303Z,2.92
2022-08-10T14:21:19.210Z,3.40
2022-08-10T14:26:26.294Z,3.40
2022-08-10T14:31:34.183Z,3.65
2022-08-10T14:36:56.153Z,2.97
2022-08-10T14:42:11.070Z,2.80
2022-08-10T14:47:53.065Z,3.45
2022-08-10T14:52:48.316Z,3.30
2022-08-10T14:58:19.795Z,3.00
2022-08-10T15:04:01.800Z,2.80
2022-08-10T15:08:42.025Z,2.97
2022-08-10T15:14:15.191Z,3.53
2022-08-10T15:20:00.636Z,3.80
2022-08-10T15:25:00.463Z,3.38
2022-08-10T15:30:03.913Z,3.33
2022-08-10T15:35:26.557Z,2.88
2022-08-10T15:40:37.371Z,3.20
2022-08-10T15:46:02.334Z,2.97
2022-08-10T15:51:10.516Z,3.40
2022-08-10T15:56:16.955Z,3.15
2022-08-10T16:02:12.703Z,3.63
2022-08-10T16:07:10.264Z,3.53
2022-08-10T16:12:29.954Z,3.92
2022-08-10T16:17:54.676Z,3.70
2022-08-10T16:23:03.419Z,3.80
2022-08-10T16:28:08.529Z,3.70
2022-08-10T16:33:13.477Z,3.42
2022-08-10T16:38:17.619Z,3.70
2022-08-10T16:43:23.786Z,3.60
2022-08-10T16:48:50.222Z,3.58
2022-08-10T16:53:52.866Z,3.38
2022-08-10T16:58:57.388Z,3.67
2022-08-10T17:04:09.605Z,3.67
2022-08-10T17:09:19.160Z,3.42
2022-08-10T17:14:26.462Z,3.38
2022-08-10T17:19:35.008Z,3.60
2022-08-10T17:24:43.586Z,4.07
2022-08-10T17:29:58.027Z,4.32
2022-08-10T17:35:09.861Z,4.18
2022-08-10T17:40:16.963Z,4.22
2022-08-10T17:45:46.230Z,3.72
2022-08-10T17:50:52.431Z,3.85
2022-08-10T17:55:56.485Z,4.43
2022-08-10T18:01:38.746Z,4.45
2022-08-10T18:06:24.346Z,4.30
2022-08-10T18:11:29.087Z,3.75
2022-08-10T18:16:33.932Z,4.28
2022-08-10T18:21:43.527Z,4.43
2022-08-10T18:26:52.452Z,4.30
2022-08-10T18:32:02.991Z,4.63
2022-08-10T18:37:19.827Z,4.20
2022-08-10T18:42:31.287Z,5.35
2022-08-10T18:47:59.543Z,5.22
2022-08-10T18:53:09.167Z,5.03
2022-08-10T18:58:40.149Z,5.15
2022-08-10T19:03:53.474Z,5.95
2022-08-10T19:09:41.597Z,6.07
2022-08-10T19:14:57.225Z,5.18
2022-08-10T19:20:17.353Z,4.82
2022-08-10T19:26:40.810Z,5.75
2022-08-10T19:30:52.010Z,5.65
2022-08-10T19:36:16.776Z,5.32
2022-08-10T19:41:44.745Z,4.75
2022-08-10T19:46:51.378Z,5.15
2022-08-10T19:52:22.550Z,6.63
2022-08-10T19:57:37.406Z,9.57
2022-08-10T20:03:04.252Z,7.65
2022-08-10T20:08:20.809Z,7.28
2022-08-10T20:13:37.013Z,7.00
2022-08-10T20:18:47.350Z,6.90
2022-08-10T20:24:05.613Z,6.82
2022-08-10T20:29:16.522Z,6.78
2022-08-10T20:34:44.821Z,8.30
2022-08-10T20:39:54.075Z,8.27
2022-08-10T20:45:18.271Z,7.80
2022-08-10T20:50:48.981Z,7.30
2022-08-10T20:56:29.358Z,9.57
2022-08-10T21:02:06.749Z,9.40
2022-08-10T21:07:28.349Z,10.20
2022-08-10T21:13:01.225Z,11.38
2022-08-10T21:18:21.590Z,10.68
2022-08-10T21:23:30.980Z,8.93
2022-08-10T21:28:51.015Z,9.48
2022-08-10T21:34:13.280Z,9.23
2022-08-10T21:39:43.011Z,9.80
2022-08-10T21:45:54.887Z,9.77
2022-08-10T21:51:24.375Z,9.02
2022-08-10T21:57:04.200Z,8.48
2022-08-10T22:02:31.648Z,8.55
2022-08-10T22:07:54.970Z,8.25
2022-08-10T22:13:21.389Z,9.52
2022-08-10T22:18:59.463Z,8.77
2022-08-10T22:24:44.771Z,9.10
2022-08-10T22:30:10.586Z,8.60
2022-08-10T22:35:34.006Z,9.38
2022-08-10T22:40:54.122Z,9.75
2022-08-10T22:46:18.408Z,9.13
2022-08-10T22:51:23.653Z,9.35
2022-08-10T22:56:44.435Z,9.95
2022-08-10T23:02:08.386Z,10.48
2022-08-10T23:07:16.899Z,9.45
2022-08-10T23:12:25.629Z,9.63
2022-08-10T23:18:01.477Z,10.05
2022-08-10T23:23:09.967Z,9.18
2022-08-10T23:28:13.532Z,9.43
2022-08-10T23:33:38.097Z,9.43
2022-08-10T23:38:42.138Z,9.50
2022-08-10T23:44:03.483Z,10.30
2022-08-10T23:49:07.742Z,10.93
2022-08-10T23:54:15.684Z,10.52
2022-08-10T23:59:21.230Z,10.25
